Tel Aviv-Yafo, Israel
Current Conditions -  °F | °C
As of 3:50 PM on Friday 24 Oct 2014 (Local Time) from LLSD Reporting Station
Clear Clear  
Wind Chill: 81°   Ceiling: Unl
Heat Index: 81°   Visibility: 6mi
Dew Point: 59°   Wind: 12mph
Humidity: 48%   Direction: 290°WNW
Pressure: 29.97"   Gusts: NA
Location:  32.07°N, 34.77°E
Report Text: LLSD 241250Z 29010KT 250V330 CAVOK 27/15 Q1015
Loading
Personal Weather Stations






























Interactive Weather Map
Tropical Storm Tracking
New forecast layout! Learn more

10-Day Weather Forecast

Advertisements
Track Severe Weather on mobile